Time;durP1;ratioP1;P1;durP2;ratioP2;P2;SDS_P1;SDS_P2;PMS_P1;PMS_P2;Temp;Humidity;BMP_temperature;BMP_pressure;BME280_temperature;BME280_humidity;BME280_pressure;Samples;Min_cycle;Max_cycle;Signal;HPM_P1;HPM_P2
2023/04/23 00:01:02;;;;;;;23.20;13.60;;;;;;;7.20;56.89;99870.79;131042;1257;107550;-76
2023/04/23 00:04:17;;;;;;;23.80;13.70;;;;;;;7.17;57.19;99870.42;130941;1258;107579;-76
2023/04/23 00:07:23;;;;;;;19.80;12.60;;;;;;;7.13;57.06;99868.44;130844;1257;107296;-74
2023/04/23 00:10:29;;;;;;;22.70;13.30;;;;;;;7.13;57.38;99868.48;130909;1253;107546;-74
2023/04/23 00:13:36;;;;;;;19.30;12.70;;;;;;;7.11;57.39;99868.45;130710;1255;107569;-76
2023/04/23 00:16:42;;;;;;;18.20;12.10;;;;;;;7.09;57.78;99868.45;130883;1261;107393;-74
2023/04/23 00:19:48;;;;;;;20.60;12.80;;;;;;;7.07;57.61;99867.35;130730;1253;107607;-77
2023/04/23 00:30:19;;;;;;;19.00;11.30;;;;;;;6.98;58.04;99863.08;130215;1264;107743;-76
2023/04/23 00:33:25;;;;;;;17.50;11.20;;;;;;;6.97;58.17;99858.05;130276;1265;107297;-76
2023/04/23 00:36:30;;;;;;;20.10;11.70;;;;;;;6.99;58.44;99858.90;130246;1264;107581;-76
2023/04/23 00:39:39;;;;;;;18.10;11.70;;;;;;;7.04;58.33;99854.56;130206;1258;107560;-76
2023/04/23 00:42:47;;;;;;;;;;;;;;;7.10;58.30;99854.20;130309;1264;107494;-76
2023/04/23 00:45:53;;;;;;;16.30;10.80;;;;;;;7.13;58.29;99853.59;130149;1269;107320;-75
2023/04/23 00:48:59;;;;;;;16.50;10.90;;;;;;;7.15;58.23;99852.58;130210;1264;107505;-75
2023/04/23 00:52:05;;;;;;;16.30;11.10;;;;;;;7.15;58.40;99855.20;130114;1259;108459;-75
2023/04/23 00:55:12;;;;;;;18.70;11.20;;;;;;;7.13;58.16;99856.44;130227;1264;107555;-76
2023/04/23 00:58:18;;;;;;;17.10;10.90;;;;;;;7.10;58.52;99857.98;130267;1261;107525;-76
2023/04/23 01:01:24;;;;;;;17.00;11.20;;;;;;;7.06;58.80;99859.00;130257;1264;108125;-76
2023/04/23 01:04:32;;;;;;;17.40;11.20;;;;;;;7.01;58.80;99857.81;130448;1253;107372;-76
2023/04/23 01:07:38;;;;;;;17.60;11.30;;;;;;;6.98;58.56;99855.68;130807;1253;107516;-74
2023/04/23 01:10:45;;;;;;;17.00;11.00;;;;;;;6.95;59.01;99858.37;130732;1255;108185;-78
2023/04/23 01:13:52;;;;;;;15.80;11.40;;;;;;;6.92;58.75;99858.00;130712;1254;107552;-76
2023/04/23 01:16:58;;;;;;;17.30;10.60;;;;;;;6.87;58.92;99862.45;130726;1257;107413;-76
2023/04/23 01:20:05;;;;;;;17.50;11.10;;;;;;;6.84;58.90;99863.67;130604;1253;107423;-76
2023/04/23 01:23:10;;;;;;;15.50;10.90;;;;;;;6.79;59.20;99858.30;130589;1257;107383;-76
2023/04/23 01:26:17;;;;;;;15.60;10.30;;;;;;;6.74;58.94;99860.34;130718;1258;107412;-76
2023/04/23 01:29:23;;;;;;;16.90;11.00;;;;;;;6.70;59.16;99859.55;130694;1254;106439;-75
2023/04/23 01:32:31;;;;;;;15.60;9.90;;;;;;;6.65;59.16;99857.77;130839;1254;107357;-75
2023/04/23 01:35:38;;;;;;;14.80;10.20;;;;;;;6.62;59.44;99854.69;130766;1254;107420;-75
2023/04/23 01:38:44;;;;;;;16.60;10.60;;;;;;;6.59;59.34;99855.33;130651;1253;107218;-76
2023/04/23 01:41:50;;;;;;;16.00;10.80;;;;;;;6.55;59.49;99849.27;130614;1258;107495;-75
2023/04/23 01:44:56;;;;;;;15.50;10.70;;;;;;;6.52;59.44;99849.37;130621;1253;107305;-76
2023/04/23 01:48:02;;;;;;;14.70;10.70;;;;;;;6.47;59.49;99849.48;130758;1255;107765;-76
2023/04/23 01:51:08;;;;;;;14.10;10.20;;;;;;;6.41;59.61;99849.09;130797;1253;107303;-76
2023/04/23 01:54:14;;;;;;;15.40;9.70;;;;;;;6.37;59.87;99851.43;130737;1266;107487;-75
2023/04/23 01:57:25;;;;;;;14.90;10.60;;;;;;;6.35;59.85;99847.16;130728;1254;107428;-76
2023/04/23 02:00:31;;;;;;;15.50;10.20;;;;;;;6.34;59.95;99848.02;130802;1268;107498;-76
2023/04/23 02:03:36;;;;;;;14.40;9.10;;;;;;;6.29;59.99;99847.17;130864;1257;107521;-76
2023/04/23 02:06:42;;;;;;;13.60;8.90;;;;;;;6.26;60.31;99846.33;130847;1257;107570;-75
2023/04/23 02:09:48;;;;;;;14.80;9.20;;;;;;;6.26;60.44;99846.36;130866;1253;107535;-76
2023/04/23 02:12:54;;;;;;;15.40;9.20;;;;;;;6.31;60.27;99844.89;130794;1257;107566;-76
2023/04/23 02:16:00;;;;;;;17.20;9.80;;;;;;;6.36;60.21;99846.07;130811;1253;106556;-76
2023/04/23 02:19:05;;;;;;;14.10;9.80;;;;;;;6.37;60.18;99845.77;130693;1257;107421;-75
2023/04/23 02:22:11;;;;;;;13.60;9.50;;;;;;;6.37;60.11;99848.25;130560;1258;107551;-75
2023/04/23 02:25:17;;;;;;;15.80;9.80;;;;;;;6.36;60.21;99846.07;130753;1254;106158;-76
2023/04/23 02:28:23;;;;;;;13.60;9.70;;;;;;;6.34;60.46;99842.70;130801;1257;106737;-76
2023/04/23 02:31:28;;;;;;;15.90;10.30;;;;;;;6.33;60.45;99843.61;130796;1257;107665;-76
2023/04/23 02:34:34;;;;;;;19.50;10.70;;;;;;;6.32;61.02;99842.46;130767;1255;107562;-75
2023/04/23 02:37:39;;;;;;;16.00;9.90;;;;;;;6.31;60.70;99834.26;130883;1259;108696;-76
2023/04/23 02:40:45;;;;;;;15.00;9.60;;;;;;;6.29;60.92;99836.40;130868;1256;107525;-76
2023/04/23 02:43:51;;;;;;;14.70;10.00;;;;;;;6.27;61.06;99835.70;130945;1257;107631;-76
2023/04/23 02:46:56;;;;;;;12.10;9.00;;;;;;;6.22;60.76;99835.52;130845;1257;106532;-77
2023/04/23 02:50:04;;;;;;;14.50;9.60;;;;;;;6.19;60.95;99833.36;130825;1258;105740;-75
2023/04/23 02:53:10;;;;;;;13.70;8.90;;;;;;;6.17;61.17;99833.75;130818;1257;106698;-74
2023/04/23 02:56:16;;;;;;;13.70;9.00;;;;;;;6.14;61.32;99830.51;130803;1257;107199;-77
2023/04/23 02:59:21;;;;;;;15.20;10.10;;;;;;;6.11;60.97;99829.69;130848;1258;107570;-76
2023/04/23 03:02:27;;;;;;;15.10;9.20;;;;;;;6.08;61.33;99831.35;130858;1257;107565;-76
2023/04/23 03:05:33;;;;;;;12.40;9.30;;;;;;;6.06;61.47;99833.30;130577;1258;107691;-75
2023/04/23 03:08:38;;;;;;;13.80;10.00;;;;;;;6.03;61.63;99829.52;130716;1253;107563;-76
2023/04/23 03:11:44;;;;;;;13.10;9.00;;;;;;;6.01;61.56;99832.50;130825;1252;105470;-74
2023/04/23 03:14:51;;;;;;;12.00;8.30;;;;;;;5.98;61.65;99829.43;130802;1252;107407;-76
2023/04/23 03:17:57;;;;;;;12.20;8.10;;;;;;;5.96;61.56;99826.88;130697;1257;107459;-74
2023/04/23 03:21:02;;;;;;;12.60;7.50;;;;;;;5.97;61.74;99825.05;130735;1253;107502;-76
2023/04/23 03:24:08;;;;;;;14.00;8.70;;;;;;;6.01;61.83;99822.11;130825;1253;107409;-76
2023/04/23 03:27:14;;;;;;;11.70;8.40;;;;;;;6.06;62.00;99819.00;130757;1265;107360;-76
2023/04/23 03:30:19;;;;;;;14.20;8.80;;;;;;;6.11;61.75;99818.04;130648;1253;107228;-75
2023/04/23 03:33:25;;;;;;;12.70;8.70;;;;;;;6.14;61.75;99817.55;130655;1257;107353;-77
2023/04/23 03:36:31;;;;;;;12.90;8.80;;;;;;;6.17;61.90;99820.14;130774;1253;107566;-74
2023/04/23 03:39:36;;;;;;;12.80;8.80;;;;;;;6.18;61.61;99816.66;130821;1257;107574;-74
2023/04/23 03:42:43;;;;;;;16.40;9.70;;;;;;;6.19;62.02;99814.33;130712;1253;107418;-75
2023/04/23 03:45:50;;;;;;;13.10;8.80;;;;;;;6.19;62.03;99812.52;130804;1253;107377;-75
2023/04/23 03:48:57;;;;;;;13.70;8.70;;;;;;;6.18;62.10;99812.48;130844;1255;107522;-75
2023/04/23 03:52:05;;;;;;;13.00;8.70;;;;;;;6.18;62.33;99814.06;130817;1253;107431;-76
2023/04/23 03:55:11;;;;;;;12.60;8.70;;;;;;;6.17;62.09;99810.91;130796;1253;107383;-75
2023/04/23 03:58:22;;;;;;;12.80;8.80;;;;;;;6.19;62.50;99811.09;130781;1257;107335;-76
2023/04/23 04:01:27;;;;;;;13.70;8.70;;;;;;;6.22;62.14;99813.98;130749;1267;108187;-75
2023/04/23 04:04:35;;;;;;;13.90;8.40;;;;;;;6.25;62.54;99812.71;130692;1257;107533;-75
2023/04/23 04:07:41;;;;;;;14.10;8.80;;;;;;;6.29;62.40;99815.94;130690;1253;107770;-75
2023/04/23 04:10:46;;;;;;;12.80;8.60;;;;;;;6.33;62.66;99814.83;130587;1253;107270;-77
2023/04/23 04:13:52;;;;;;;15.10;8.40;;;;;;;6.39;62.90;99818.18;130617;1256;106432;-77
2023/04/23 04:16:57;;;;;;;13.60;7.90;;;;;;;6.50;62.82;99817.72;130876;1253;107416;-75
2023/04/23 04:20:03;;;;;;;11.90;8.20;;;;;;;6.60;62.72;99816.32;130787;1253;107245;-75
2023/04/23 04:23:09;;;;;;;13.90;8.60;;;;;;;6.69;62.64;99809.48;130630;1254;105654;-74
2023/04/23 04:26:15;;;;;;;12.00;7.90;;;;;;;6.79;63.32;99808.23;130844;1253;107475;-74
2023/04/23 04:29:22;;;;;;;13.50;7.90;;;;;;;6.97;63.17;99808.73;130885;1258;107260;-74
2023/04/23 04:32:28;;;;;;;12.40;7.30;;;;;;;7.21;63.32;99806.55;130722;1257;107519;-74
2023/04/23 04:35:33;;;;;;;14.40;8.40;;;;;;;7.46;63.49;99801.73;130861;1257;107526;-74
2023/04/23 04:38:39;;;;;;;13.20;8.30;;;;;;;7.74;63.50;99801.57;130841;1257;107465;-75
2023/04/23 04:41:45;;;;;;;12.00;8.20;;;;;;;8.04;63.38;99802.25;130690;1257;105825;-75
2023/04/23 04:44:51;;;;;;;15.40;8.40;;;;;;;8.33;63.37;99804.92;130701;1258;106745;-76
2023/04/23 04:47:57;;;;;;;14.40;8.90;;;;;;;8.61;63.35;99808.55;130689;1254;106825;-76
2023/04/23 04:51:03;;;;;;;12.50;9.20;;;;;;;8.88;63.29;99805.75;130660;1257;107455;-76
2023/04/23 04:54:09;;;;;;;14.10;9.10;;;;;;;9.13;63.46;99809.27;130844;1257;107560;-76
2023/04/23 04:57:14;;;;;;;14.30;9.20;;;;;;;9.38;63.18;99810.51;130872;1257;107619;-76
2023/04/23 05:00:28;;;;;;;14.10;8.90;;;;;;;9.61;62.83;99803.30;130898;1257;107402;-73
2023/04/23 05:03:34;;;;;;;13.70;8.90;;;;;;;9.86;62.94;99800.10;130912;1257;106563;-73
2023/04/23 05:06:40;;;;;;;16.10;9.50;;;;;;;10.08;62.91;99799.90;130973;1257;107341;-74
2023/04/23 05:09:45;;;;;;;12.20;8.40;;;;;;;10.30;62.30;99801.54;130861;1257;106149;-74
2023/04/23 05:12:51;;;;;;;15.90;11.30;;;;;;;10.50;62.61;99808.78;130928;1257;107543;-73
2023/04/23 05:15:57;;;;;;;13.50;9.50;;;;;;;10.69;62.39;99810.03;130800;1257;107408;-75
2023/04/23 05:19:02;;;;;;;12.20;9.00;;;;;;;10.86;61.99;99800.48;130621;1257;105653;-75
2023/04/23 05:22:08;;;;;;;13.40;9.30;;;;;;;11.03;61.94;99800.23;130660;1257;107545;-74
2023/04/23 05:25:14;;;;;;;12.70;9.40;;;;;;;11.20;61.87;99806.05;130850;1257;107978;-74
2023/04/23 05:28:20;;;;;;;13.10;9.00;;;;;;;11.37;62.01;99807.27;130882;1257;107400;-75
2023/04/23 05:31:25;;;;;;;11.90;8.40;;;;;;;11.54;61.87;99798.05;130854;1253;107599;-75
2023/04/23 05:34:31;;;;;;;12.60;8.80;;;;;;;11.68;61.63;99798.25;130690;1257;107520;-74
2023/04/23 05:37:36;;;;;;;11.80;8.40;;;;;;;11.83;61.67;99801.44;130624;1253;107276;-75
2023/04/23 05:40:42;;;;;;;13.40;8.40;;;;;;;11.95;60.99;99802.64;130712;1253;107532;-73
2023/04/23 05:43:47;;;;;;;15.30;9.00;;;;;;;12.04;60.85;99800.86;130616;1253;108130;-74
2023/04/23 05:46:53;;;;;;;10.90;8.80;;;;;;;12.13;60.77;99796.14;130776;1254;107439;-75
2023/04/23 05:49:58;;;;;;;14.30;9.50;;;;;;;12.23;60.89;99799.64;130723;1253;105922;-74
2023/04/23 05:53:04;;;;;;;12.50;8.20;;;;;;;12.32;60.92;99798.75;130604;1253;107543;-74
2023/04/23 05:56:09;;;;;;;12.50;8.30;;;;;;;12.41;60.49;99794.23;130780;1253;106595;-74
2023/04/23 05:59:15;;;;;;;11.00;7.70;;;;;;;12.48;60.38;99797.16;130723;1252;107585;-74
2023/04/23 06:02:20;;;;;;;10.10;7.50;;;;;;;12.55;60.35;99797.02;130881;1253;107558;-75
2023/04/23 06:05:26;;;;;;;12.60;7.90;;;;;;;12.61;60.11;99795.60;131203;1257;107540;-74
2023/04/23 06:08:31;;;;;;;12.60;8.00;;;;;;;12.69;60.31;99798.16;130725;1254;107579;-74
2023/04/23 06:11:37;;;;;;;12.50;7.50;;;;;;;12.76;60.00;99798.58;130799;1257;107568;-75
2023/04/23 06:14:42;;;;;;;10.10;6.90;;;;;;;12.83;60.21;99794.21;130814;1258;105785;-74
2023/04/23 06:17:48;;;;;;;10.90;7.50;;;;;;;12.91;59.95;99792.53;130771;1253;108184;-75
2023/04/23 06:20:55;;;;;;;10.20;6.70;;;;;;;12.98;59.85;99794.18;130736;1258;107491;-74
2023/04/23 06:24:01;;;;;;;9.60;6.90;;;;;;;13.05;59.26;99793.77;130893;1257;109053;-75
2023/04/23 06:27:06;;;;;;;9.80;7.30;;;;;;;13.12;59.16;99792.57;130752;1258;106466;-76
2023/04/23 06:30:15;;;;;;;11.60;6.90;;;;;;;13.19;58.76;99793.71;130848;1255;107390;-75
2023/04/23 06:33:21;;;;;;;8.80;6.50;;;;;;;13.26;58.84;99789.52;130792;1257;107179;-75
2023/04/23 06:36:27;;;;;;;9.10;7.10;;;;;;;13.34;58.85;99792.70;130715;1257;107445;-75
2023/04/23 06:39:32;;;;;;;9.30;6.90;;;;;;;13.43;59.04;99790.73;130661;1257;107531;-74
2023/04/23 06:42:38;;;;;;;10.10;6.40;;;;;;;13.52;58.93;99787.52;130774;1257;107582;-75
2023/04/23 06:46:11;;;;;;;9.10;6.90;;;;;;;13.61;58.58;99785.55;130671;1257;107689;-74
2023/04/23 06:49:18;;;;;;;9.60;6.80;;;;;;;13.70;58.32;99787.17;130890;1258;107526;-75
2023/04/23 06:52:24;;;;;;;12.10;6.60;;;;;;;13.79;58.50;99780.27;130699;1253;107543;-73
2023/04/23 06:55:30;;;;;;;9.30;5.80;;;;;;;13.91;58.25;99778.73;130635;1257;107513;-76
2023/04/23 06:58:38;;;;;;;9.70;6.40;;;;;;;14.03;57.86;99776.73;130847;1253;107698;-76
2023/04/23 07:01:50;;;;;;;9.40;6.20;;;;;;;14.13;57.88;99777.83;130798;1253;107463;-77
2023/04/23 07:04:59;;;;;;;9.40;5.90;;;;;;;14.25;58.04;99770.33;130613;1257;106664;-75
2023/04/23 07:08:04;;;;;;;9.80;6.10;;;;;;;14.38;57.99;99770.17;130747;1258;106772;-76
2023/04/23 07:11:10;;;;;;;8.40;6.20;;;;;;;14.49;57.65;99772.12;130703;1257;107559;-74
2023/04/23 07:14:17;;;;;;;8.70;5.90;;;;;;;14.60;57.64;99770.19;130767;1253;108026;-75
2023/04/23 07:17:23;;;;;;;5.90;5.00;;;;;;;14.74;56.96;99769.59;130731;1256;107658;-74
2023/04/23 07:20:28;;;;;;;17.10;6.00;;;;;;;14.85;56.64;99764.48;130745;1257;107391;-73
2023/04/23 07:23:34;;;;;;;8.30;5.60;;;;;;;14.98;56.46;99763.80;130806;1252;107389;-74
2023/04/23 07:26:39;;;;;;;9.80;5.30;;;;;;;15.10;56.36;99764.02;130851;1257;105705;-73
2023/04/23 07:29:45;;;;;;;9.00;5.20;;;;;;;15.20;55.84;99762.73;130847;1258;105895;-75
2023/04/23 07:32:51;;;;;;;8.30;5.50;;;;;;;15.30;55.31;99762.56;130794;1257;107537;-74
2023/04/23 07:35:57;;;;;;;8.00;5.50;;;;;;;15.40;55.47;99758.20;130759;1257;107408;-74
2023/04/23 07:39:04;;;;;;;6.80;5.40;;;;;;;15.51;55.42;99754.88;130938;1257;107521;-74
2023/04/23 07:42:15;;;;;;;10.40;7.70;;;;;;;15.62;55.74;99753.05;130947;1253;107250;-76
2023/04/23 07:45:21;;;;;;;8.30;6.70;;;;;;;15.73;55.49;99750.23;130990;1257;107463;-78
2023/04/23 07:48:26;;;;;;;9.00;5.60;;;;;;;15.86;55.62;99748.69;130869;1258;107518;-76
2023/04/23 07:51:32;;;;;;;11.20;6.90;;;;;;;15.99;55.19;99747.59;130787;1257;107551;-76
2023/04/23 07:54:38;;;;;;;6.50;4.80;;;;;;;16.12;54.71;99742.70;130857;1253;107390;-76
2023/04/23 07:57:45;;;;;;;5.70;4.70;;;;;;;16.22;54.60;99739.01;130747;1253;107541;-76
2023/04/23 08:00:50;;;;;;;7.00;4.80;;;;;;;16.32;54.06;99743.23;130779;1257;107368;-76
2023/04/23 08:03:56;;;;;;;6.40;4.60;;;;;;;16.42;52.88;99744.16;130819;1253;108179;-75
2023/04/23 08:07:02;;;;;;;6.10;4.60;;;;;;;16.48;53.12;99743.80;130772;1259;107520;-78
2023/04/23 08:10:10;;;;;;;7.40;4.90;;;;;;;16.57;52.92;99739.80;130940;1259;106713;-78
2023/04/23 08:13:15;;;;;;;6.10;4.90;;;;;;;16.66;52.79;99744.65;131183;1253;106301;-75
2023/04/23 08:16:21;;;;;;;6.30;4.40;;;;;;;16.74;52.49;99740.77;130801;1257;107552;-75
2023/04/23 08:19:30;;;;;;;6.40;5.00;;;;;;;16.81;51.59;99733.70;130793;1253;107525;-74
2023/04/23 08:22:36;;;;;;;6.10;4.60;;;;;;;16.88;51.49;99737.45;130839;1253;106041;-76
2023/04/23 08:25:41;;;;;;;5.90;4.50;;;;;;;16.97;51.35;99733.48;130846;1258;107522;-75
2023/04/23 08:28:47;;;;;;;7.40;4.60;;;;;;;17.06;50.72;99733.17;130801;1258;107448;-76
2023/04/23 08:31:53;;;;;;;6.60;4.40;;;;;;;17.13;50.34;99734.63;130850;1253;105884;-75
2023/04/23 08:34:58;;;;;;;5.50;4.30;;;;;;;17.21;50.64;99731.39;130815;1253;107527;-75
2023/04/23 08:38:04;;;;;;;6.00;4.50;;;;;;;17.30;50.84;99732.70;130859;1253;107627;-76
2023/04/23 08:41:13;;;;;;;5.70;4.50;;;;;;;17.38;50.28;99731.56;130813;1258;106218;-76
2023/04/23 08:44:22;;;;;;;5.80;4.50;;;;;;;17.45;50.68;99727.44;130887;1258;107585;-76
2023/04/23 08:47:32;;;;;;;6.20;4.50;;;;;;;17.51;50.22;99731.08;130879;1257;107556;-75
2023/04/23 08:50:40;;;;;;;5.40;4.40;;;;;;;17.57;50.27;99727.70;131105;1253;107278;-76
2023/04/23 08:53:56;;;;;;;6.20;4.30;;;;;;;17.65;49.91;99724.06;131137;1258;107534;-76
2023/04/23 08:57:01;;;;;;;5.60;4.40;;;;;;;17.73;50.00;99721.72;130891;1257;107570;-75
2023/04/23 09:00:10;;;;;;;6.50;4.60;;;;;;;17.82;49.72;99718.52;131053;1258;108186;-76
2023/04/23 09:03:17;;;;;;;7.10;4.80;;;;;;;17.92;49.32;99711.63;131080;1257;107556;-76
2023/04/23 09:06:23;;;;;;;5.20;4.40;;;;;;;18.00;49.38;99709.76;130859;1258;107408;-76
2023/04/23 09:09:30;;;;;;;6.20;4.30;;;;;;;18.07;49.57;99710.06;130884;1257;107403;-75
2023/04/23 09:12:37;;;;;;;4.90;4.00;;;;;;;18.13;49.49;99703.41;130737;1258;107488;-76
2023/04/23 09:15:43;;;;;;;5.80;4.50;;;;;;;18.16;49.05;99699.74;130819;1254;107230;-76
2023/04/23 09:18:50;;;;;;;7.50;4.40;;;;;;;18.19;49.02;99702.34;130816;1253;105642;-75
2023/04/23 09:21:59;;;;;;;8.30;4.70;;;;;;;18.27;49.02;99699.52;130888;1253;106460;-77
2023/04/23 09:25:07;;;;;;;4.70;4.20;;;;;;;18.32;48.79;99697.66;130776;1268;108336;-76
2023/04/23 09:28:14;;;;;;;7.60;4.10;;;;;;;18.36;48.58;99691.64;130845;1257;107292;-77
2023/04/23 09:31:23;;;;;;;5.50;3.80;;;;;;;18.42;48.41;99689.69;130869;1258;106700;-76
2023/04/23 09:34:28;;;;;;;5.30;3.90;;;;;;;18.51;47.66;99688.89;130845;1259;107379;-76
2023/04/23 09:37:35;;;;;;;4.80;3.80;;;;;;;18.57;47.82;99684.19;130808;1258;107647;-76
2023/04/23 09:40:40;;;;;;;4.80;3.80;;;;;;;18.67;47.61;99686.56;130817;1256;108151;-76
2023/04/23 09:43:48;;;;;;;4.90;4.30;;;;;;;18.74;46.80;99679.42;130786;1258;107597;-77
2023/04/23 09:46:54;;;;;;;5.60;4.20;;;;;;;18.80;46.91;99673.79;130843;1253;107400;-77
2023/04/23 09:50:00;;;;;;;5.50;4.00;;;;;;;18.86;46.87;99673.38;130795;1258;107399;-77
2023/04/23 09:53:07;;;;;;;4.30;3.90;;;;;;;18.90;46.75;99670.84;130892;1253;106747;-76
2023/04/23 09:56:13;;;;;;;4.60;4.00;;;;;;;18.99;46.33;99667.56;130667;1253;204879;-76
2023/04/23 09:59:28;;;;;;;4.80;4.00;;;;;;;19.05;45.80;99663.25;131051;1257;107551;-78
2023/04/23 10:02:33;;;;;;;5.60;4.30;;;;;;;19.10;45.92;99658.55;130958;1258;106529;-78
2023/04/23 10:05:42;;;;;;;6.00;4.20;;;;;;;19.13;45.80;99651.00;130796;1258;107545;-78
2023/04/23 10:08:47;;;;;;;6.40;4.30;;;;;;;19.18;45.09;99651.98;130920;1260;107522;-77
2023/04/23 10:11:55;;;;;;;6.00;4.30;;;;;;;19.22;44.42;99648.67;130995;1259;107109;-78
2023/04/23 10:15:02;;;;;;;5.30;4.30;;;;;;;19.27;45.06;99642.65;130922;1257;107514;-77
2023/04/23 10:18:09;;;;;;;6.40;4.00;;;;;;;19.34;45.36;99636.24;130817;1258;107557;-77
2023/04/23 10:21:17;;;;;;;6.40;4.10;;;;;;;19.38;45.07;99633.57;131068;1253;108164;-77
2023/04/23 10:24:27;;;;;;;6.30;4.50;;;;;;;19.42;44.79;99623.03;130794;1267;107487;-76
2023/04/23 10:27:33;;;;;;;8.30;5.40;;;;;;;19.49;44.75;99624.80;130805;1259;107251;-76
2023/04/23 10:30:39;;;;;;;5.80;4.70;;;;;;;19.53;43.79;99626.10;130840;1258;107632;-77
2023/04/23 10:33:49;;;;;;;5.30;4.80;;;;;;;19.56;43.99;99620.83;130739;1258;106007;-77
2023/04/23 10:36:55;;;;;;;11.00;7.70;;;;;;;19.61;43.64;99622.80;130753;1260;105973;-77
2023/04/23 10:40:10;;;;;;;6.90;4.80;;;;;;;19.65;43.40;99612.30;130750;1259;107551;-77
2023/04/23 10:43:17;;;;;;;8.20;5.90;;;;;;;19.65;42.88;99605.48;130707;1256;106792;-77
2023/04/23 10:46:33;;;;;;;6.00;5.00;;;;;;;19.70;42.94;99607.23;130756;1258;107525;-77
2023/04/23 10:49:40;;;;;;;6.00;4.50;;;;;;;19.73;43.21;99607.69;130770;1257;107414;-77
2023/04/23 10:52:50;;;;;;;4.60;4.20;;;;;;;19.77;42.71;99596.48;130674;1253;107291;-78
2023/04/23 10:56:08;;;;;;;7.10;5.00;;;;;;;19.81;42.03;99599.78;130782;1252;106095;-77
2023/04/23 10:59:21;;;;;;;5.90;4.40;;;;;;;19.86;41.52;99598.67;130834;1253;105617;-76
2023/04/23 11:02:42;;;;;;;8.30;4.40;;;;;;;19.93;42.28;99601.34;130750;1258;107406;-77
2023/04/23 11:05:48;;;;;;;5.30;4.00;;;;;;;19.94;41.52;99594.54;130695;1261;108226;-77
2023/04/23 11:08:56;;;;;;;5.30;4.60;;;;;;;19.96;41.45;99592.28;130632;1258;106875;-76
2023/04/23 11:12:03;;;;;;;5.90;4.90;;;;;;;20.01;41.39;99590.88;130801;1259;107290;-76
2023/04/23 11:15:18;;;;;;;5.30;4.70;;;;;;;20.05;41.64;99586.25;130960;1258;106618;-77
2023/04/23 11:18:25;;;;;;;6.00;4.30;;;;;;;20.10;41.71;99585.63;130760;1258;108639;-77
2023/04/23 11:22:01;;;;;;;6.70;4.40;;;;;;;20.16;41.39;99581.43;130824;1259;107382;-77
2023/04/23 11:25:10;;;;;;;5.90;4.50;;;;;;;20.21;41.40;99582.45;130704;1266;107412;-77
2023/04/23 11:28:16;;;;;;;6.90;4.40;;;;;;;20.25;41.13;99577.92;130857;1257;107780;-77
2023/04/23 11:31:22;;;;;;;5.80;4.50;;;;;;;20.27;41.09;99566.48;130879;1259;107576;-77
2023/04/23 11:34:28;;;;;;;5.10;4.30;;;;;;;20.27;40.66;99564.55;130810;1259;107477;-77
2023/04/23 11:37:33;;;;;;;5.00;4.20;;;;;;;20.29;40.44;99568.89;130780;1258;107498;-76
2023/04/23 11:40:41;;;;;;;6.80;4.30;;;;;;;20.35;39.93;99571.09;130730;1259;106292;-76
2023/04/23 11:43:47;;;;;;;5.30;4.30;;;;;;;20.48;40.24;99563.74;130822;1267;107502;-77
2023/04/23 11:46:53;;;;;;;5.30;4.60;;;;;;;20.77;40.40;99557.17;130732;1258;107525;-77
2023/04/23 11:50:01;;;;;;;9.10;5.00;;;;;;;21.08;40.19;99550.14;130738;1258;107556;-77
2023/04/23 11:53:08;;;;;;;4.80;4.30;;;;;;;21.31;38.81;99552.59;130798;1257;107423;-77
2023/04/23 11:56:15;;;;;;;8.00;6.40;;;;;;;21.48;38.98;99552.14;130784;1267;107435;-76
2023/04/23 11:59:21;;;;;;;7.50;4.60;;;;;;;21.63;39.36;99543.91;130835;1258;108119;-77
2023/04/23 12:02:27;;;;;;;5.90;4.70;;;;;;;21.78;39.45;99542.83;130838;1256;107239;-76
2023/04/23 12:05:35;;;;;;;5.70;4.90;;;;;;;21.90;38.69;99543.47;130761;1259;107459;-77
2023/04/23 12:08:42;;;;;;;5.90;4.60;;;;;;;21.94;38.11;99547.95;130733;1258;106695;-77
2023/04/23 12:11:49;;;;;;;4.40;4.00;;;;;;;22.04;38.66;99543.64;130819;1259;107566;-77
2023/04/23 12:15:05;;;;;;;8.60;6.50;;;;;;;22.15;38.89;99541.83;130804;1258;107342;-77
2023/04/23 12:18:14;;;;;;;6.90;4.50;;;;;;;22.26;38.99;99534.84;130780;1259;107566;-76
2023/04/23 12:21:20;;;;;;;6.00;4.90;;;;;;;22.32;38.42;99535.11;130719;1258;105778;-77
2023/04/23 12:24:27;;;;;;;5.50;4.50;;;;;;;22.34;38.09;99535.91;130639;1258;107520;-77
2023/04/23 12:27:33;;;;;;;5.00;4.40;;;;;;;22.36;38.01;99537.09;130689;1259;107516;-77
2023/04/23 12:30:44;;;;;;;5.20;4.10;;;;;;;22.38;38.47;99529.66;130733;1268;107443;-77
2023/04/23 12:33:58;;;;;;;6.90;4.20;;;;;;;22.33;38.27;99524.75;130565;1268;107536;-77
2023/04/23 12:37:07;;;;;;;6.40;4.60;;;;;;;22.18;37.97;99520.61;130617;1256;107563;-76
2023/04/23 12:40:13;;;;;;;5.70;4.40;;;;;;;22.00;37.67;99521.04;130563;1258;107656;-77
2023/04/23 12:43:19;;;;;;;5.00;4.50;;;;;;;21.86;37.89;99514.55;130622;1268;107394;-77
2023/04/23 12:46:24;;;;;;;5.80;4.30;;;;;;;21.79;37.93;99518.45;130889;1259;107527;-76
2023/04/23 12:49:31;;;;;;;5.00;4.20;;;;;;;21.74;38.09;99514.40;130819;1259;107449;-76
2023/04/23 12:52:37;;;;;;;5.20;4.30;;;;;;;21.72;37.93;99512.59;130791;1257;107467;-76
2023/04/23 12:55:44;;;;;;;5.00;4.50;;;;;;;21.71;38.05;99509.45;130667;1258;107184;-77
2023/04/23 12:58:49;;;;;;;5.70;4.60;;;;;;;21.55;37.84;99510.60;130771;1258;107559;-77
2023/04/23 13:01:55;;;;;;;5.40;4.50;;;;;;;21.51;38.04;99507.31;130760;1259;108132;-77
2023/04/23 13:05:01;;;;;;;7.50;5.00;;;;;;;21.51;37.59;99496.90;130694;1257;107435;-77
2023/04/23 13:08:06;;;;;;;7.80;5.10;;;;;;;21.52;37.89;99495.23;130705;1254;108587;-77
2023/04/23 13:11:12;;;;;;;5.20;4.60;;;;;;;21.64;38.08;99494.73;130737;1253;107439;-77
2023/04/23 13:14:17;;;;;;;6.60;4.30;;;;;;;21.81;37.47;99488.23;130761;1258;107657;-77
2023/04/23 13:17:25;;;;;;;5.60;4.60;;;;;;;21.93;37.31;99487.03;130809;1258;107558;-78
2023/04/23 13:20:30;;;;;;;5.10;4.30;;;;;;;22.02;37.40;99487.87;131042;1258;106263;-75
2023/04/23 13:23:37;;;;;;;4.80;4.30;;;;;;;22.05;37.56;99481.95;130803;1258;107540;-75
2023/04/23 13:26:42;;;;;;;5.80;4.30;;;;;;;22.06;36.60;99478.44;130805;1261;107265;-75
2023/04/23 13:29:48;;;;;;;4.90;4.20;;;;;;;22.07;37.18;99474.69;130790;1259;107502;-75
2023/04/23 13:32:54;;;;;;;5.60;4.50;;;;;;;22.12;37.09;99472.55;130765;1258;107535;-75
2023/04/23 13:36:01;;;;;;;5.70;4.90;;;;;;;22.21;37.30;99469.52;130757;1260;107306;-75
2023/04/23 13:39:07;;;;;;;5.60;4.70;;;;;;;22.27;36.46;99456.55;130669;1259;107384;-75
2023/04/23 13:42:13;;;;;;;5.80;4.60;;;;;;;22.37;37.00;99462.13;130764;1258;107625;-75
2023/04/23 13:45:19;;;;;;;7.00;5.00;;;;;;;22.42;36.65;99460.19;130957;1260;107374;-76
2023/04/23 13:48:27;;;;;;;5.70;4.60;;;;;;;22.41;36.84;99456.65;130753;1257;107374;-78
2023/04/23 13:51:33;;;;;;;5.70;4.40;;;;;;;22.40;37.00;99456.67;130835;1255;107292;-78
2023/04/23 13:54:39;;;;;;;7.10;4.80;;;;;;;22.36;36.63;99457.72;130853;1267;107581;-75
2023/04/23 13:57:44;;;;;;;5.40;4.60;;;;;;;22.23;36.34;99450.07;130779;1257;107288;-75
2023/04/23 14:00:50;;;;;;;5.80;4.60;;;;;;;22.15;36.82;99441.13;130771;1259;106658;-75
2023/04/23 14:03:56;;;;;;;7.00;4.70;;;;;;;22.14;36.78;99439.86;130634;1263;108389;-75
2023/04/23 14:07:01;;;;;;;5.40;4.40;;;;;;;22.13;36.67;99434.91;130643;1267;107541;-75
2023/04/23 14:10:08;;;;;;;6.50;4.90;;;;;;;22.10;36.75;99433.55;130567;1257;108194;-75
2023/04/23 14:13:14;;;;;;;5.60;5.00;;;;;;;22.09;36.88;99426.26;130675;1258;107477;-75
2023/04/23 14:16:19;;;;;;;6.20;4.80;;;;;;;22.06;36.59;99425.39;130732;1258;107576;-75
2023/04/23 14:19:25;;;;;;;5.50;4.80;;;;;;;22.01;36.53;99426.69;130825;1258;106185;-75
2023/04/23 14:22:30;;;;;;;6.50;5.00;;;;;;;22.00;36.32;99425.19;130620;1265;107556;-75